createdAt,value
2022-11-05T00:01:59.674Z,22.92
2022-11-05T00:04:50.033Z,22.35
2022-11-05T00:07:40.275Z,22.10
2022-11-05T00:10:14.708Z,23.58
2022-11-05T00:15:46.672Z,22.83
2022-11-05T00:18:13.888Z,22.30
2022-11-05T00:20:40.938Z,25.30
2022-11-05T00:23:26.371Z,22.60
2022-11-05T00:26:04.613Z,22.13
2022-11-05T00:28:33.668Z,21.17
2022-11-05T00:31:06.267Z,20.65
2022-11-05T00:33:33.602Z,19.13
2022-11-05T00:36:02.921Z,17.45
2022-11-05T00:38:31.236Z,17.58
2022-11-05T00:41:00.965Z,16.20
2022-11-05T00:43:49.329Z,14.65
2022-11-05T00:46:23.856Z,11.43
2022-11-05T00:49:19.589Z,10.32
2022-11-05T00:53:16.359Z,5.13
2022-11-05T00:55:52.649Z,3.70
2022-11-05T00:59:35.714Z,3.00
2022-11-05T01:02:09.208Z,3.75
2022-11-05T01:04:43.390Z,3.60
2022-11-05T01:07:16.226Z,4.00
2022-11-05T01:09:57.444Z,4.00
2022-11-05T01:12:35.222Z,3.97
2022-11-05T01:15:56.725Z,4.03
2022-11-05T01:18:29.124Z,3.80
2022-11-05T01:21:28.551Z,3.70
2022-11-05T01:24:00.243Z,4.03
2022-11-05T01:26:39.740Z,4.63
2022-11-05T01:29:15.572Z,4.35
2022-11-05T01:31:47.225Z,4.75
2022-11-05T01:34:30.257Z,4.40
2022-11-05T01:37:03.619Z,4.28
2022-11-05T01:39:45.686Z,4.75
2022-11-05T01:42:32.734Z,4.50
2022-11-05T01:45:31.880Z,5.35
2022-11-05T01:48:22.944Z,5.85
2022-11-05T01:51:09.702Z,5.40
2022-11-05T01:53:57.964Z,6.22
2022-11-05T01:56:49.080Z,5.75
2022-11-05T01:59:27.680Z,5.55
2022-11-05T02:01:56.848Z,6.13
2022-11-05T02:04:42.572Z,6.47
2022-11-05T02:07:15.929Z,5.68
2022-11-05T02:09:50.136Z,5.95
2022-11-05T02:14:50.684Z,4.45
2022-11-05T02:17:27.095Z,4.40
2022-11-05T02:20:11.119Z,5.20
2022-11-05T02:23:09.767Z,4.95
2022-11-05T02:26:19.329Z,5.10
2022-11-05T02:29:03.061Z,4.18
2022-11-05T02:31:43.328Z,4.63
2022-11-05T02:34:27.653Z,4.05
2022-11-05T02:37:19.499Z,4.03
2022-11-05T02:40:13.190Z,5.03
2022-11-05T02:42:53.017Z,4.13
2022-11-05T02:45:46.491Z,4.72
2022-11-05T02:49:01.128Z,3.97
2022-11-05T02:51:53.246Z,3.35
2022-11-05T02:54:42.048Z,3.22
2022-11-05T02:57:17.816Z,3.83
2022-11-05T03:00:08.040Z,3.80
2022-11-05T03:02:44.117Z,3.05
2022-11-05T03:05:13.430Z,2.97
2022-11-05T03:07:59.980Z,3.75
2022-11-05T03:11:01.632Z,3.65
2022-11-05T03:13:49.998Z,2.70
2022-11-05T03:16:40.744Z,3.03
2022-11-05T03:19:49.308Z,3.33
2022-11-05T03:22:41.183Z,3.10
2022-11-05T03:25:26.430Z,3.60
2022-11-05T03:28:10.058Z,2.95
2022-11-05T03:30:51.969Z,3.08
2022-11-05T03:33:34.960Z,3.25
2022-11-05T03:36:07.492Z,2.83
2022-11-05T03:38:45.566Z,2.92
2022-11-05T03:41:25.201Z,3.30
2022-11-05T03:44:04.365Z,3.70
2022-11-05T03:46:51.050Z,2.70
2022-11-05T03:49:30.720Z,3.28
2022-11-05T03:52:09.065Z,3.30
2022-11-05T03:54:37.329Z,3.22
2022-11-05T03:57:12.981Z,2.88
2022-11-05T03:59:49.722Z,3.00
2022-11-05T04:02:19.828Z,3.40
2022-11-05T04:04:48.207Z,4.50
2022-11-05T04:07:33.830Z,3.45
2022-11-05T04:10:19.985Z,3.40
2022-11-05T04:13:09.973Z,4.50
2022-11-05T04:15:56.788Z,4.25
2022-11-05T04:18:27.017Z,4.00
2022-11-05T04:21:12.585Z,4.55
2022-11-05T04:24:02.189Z,4.22
2022-11-05T04:26:33.261Z,4.43
2022-11-05T04:29:21.093Z,4.57
2022-11-05T04:31:48.447Z,4.00
2022-11-05T04:34:16.612Z,4.55
2022-11-05T04:36:53.429Z,4.20
2022-11-05T04:39:23.871Z,4.97
2022-11-05T04:41:52.309Z,4.65
2022-11-05T04:44:20.009Z,3.85
2022-11-05T04:46:50.316Z,3.95
2022-11-05T04:49:24.420Z,4.05
2022-11-05T04:54:23.094Z,4.13
2022-11-05T04:56:52.277Z,3.70
2022-11-05T04:59:23.898Z,3.40
2022-11-05T05:01:53.317Z,2.95
2022-11-05T05:04:33.897Z,4.20
2022-11-05T05:07:11.087Z,3.60
2022-11-05T05:09:50.636Z,4.30
2022-11-05T05:12:27.580Z,4.10
2022-11-05T05:15:03.874Z,4.40
2022-11-05T05:17:40.259Z,3.90
2022-11-05T05:20:34.044Z,3.35
2022-11-05T05:23:01.789Z,3.95
2022-11-05T05:25:30.590Z,3.60
2022-11-05T05:30:42.963Z,4.07
2022-11-05T05:33:20.829Z,3.80
2022-11-05T05:35:48.812Z,3.50
2022-11-05T05:38:22.643Z,4.10
2022-11-05T05:40:57.799Z,3.65
2022-11-05T05:43:30.186Z,3.88
2022-11-05T05:46:13.849Z,3.97
2022-11-05T05:48:51.766Z,5.13
2022-11-05T05:51:20.137Z,4.00
2022-11-05T05:54:15.891Z,4.38
2022-11-05T05:56:44.553Z,4.72
2022-11-05T05:59:15.344Z,4.45
2022-11-05T06:01:43.679Z,4.00
2022-11-05T06:04:14.283Z,3.78
2022-11-05T06:06:41.867Z,4.40
2022-11-05T06:09:09.364Z,4.30
2022-11-05T06:11:36.553Z,4.15
2022-11-05T06:14:04.192Z,3.80
2022-11-05T06:16:36.239Z,4.13
2022-11-05T06:19:03.817Z,4.13
2022-11-05T06:21:30.932Z,3.95
2022-11-05T06:24:00.548Z,4.20
2022-11-05T06:26:27.910Z,4.40
2022-11-05T06:28:55.287Z,3.75
2022-11-05T06:31:22.530Z,4.55
2022-11-05T06:33:49.965Z,4.07
2022-11-05T06:36:19.226Z,3.70
2022-11-05T06:38:46.944Z,3.95
2022-11-05T08:42:58.556Z,12.05
2022-11-05T09:24:20.227Z,6.10
2022-11-05T09:27:24.469Z,5.45
2022-11-05T09:37:05.176Z,3.83
2022-11-05T09:43:38.006Z,4.28
2022-11-05T11:30:04.726Z,4.53
2022-11-05T14:21:08.095Z,8.77
2022-11-05T14:23:55.379Z,8.88
2022-11-05T16:18:30.271Z,5.70
2022-11-05T16:21:07.057Z,5.65
2022-11-05T16:23:55.167Z,5.35
2022-11-05T16:27:01.665Z,5.65
2022-11-05T16:29:40.830Z,6.13
2022-11-05T16:32:18.380Z,5.50
2022-11-05T16:34:52.466Z,5.90
2022-11-05T16:37:23.060Z,5.25
2022-11-05T16:39:50.576Z,5.35
2022-11-05T16:42:23.840Z,5.70
2022-11-05T16:44:55.299Z,6.10
2022-11-05T16:47:23.332Z,5.85
2022-11-05T16:49:51.038Z,5.82
2022-11-05T16:52:18.871Z,6.35
2022-11-05T16:54:45.955Z,6.63
2022-11-05T16:57:25.671Z,7.10
2022-11-05T16:59:54.083Z,6.82
2022-11-05T17:02:21.680Z,7.47
2022-11-05T17:04:48.801Z,6.63
2022-11-05T17:07:15.975Z,8.25
2022-11-05T17:09:43.124Z,8.70
2022-11-05T17:12:11.719Z,7.38
2022-11-05T17:14:39.527Z,7.60
2022-11-05T17:17:06.780Z,7.38
2022-11-05T17:19:34.000Z,8.98
2022-11-05T17:22:01.068Z,11.25
2022-11-05T17:24:28.278Z,9.45
2022-11-05T17:26:55.427Z,9.98
2022-11-05T17:29:22.491Z,10.35
2022-11-05T17:31:49.547Z,9.95
2022-11-05T17:34:16.634Z,12.18
2022-11-05T17:36:43.718Z,12.45
2022-11-05T17:39:11.144Z,12.43
2022-11-05T17:41:38.377Z,13.15
2022-11-05T17:44:05.592Z,14.63
2022-11-05T17:46:32.749Z,15.00
2022-11-05T17:48:59.843Z,15.88
2022-11-05T17:51:27.009Z,17.33
2022-11-05T17:53:54.083Z,19.33
2022-11-05T17:56:32.520Z,18.65
2022-11-05T17:59:01.756Z,18.92
2022-11-05T18:01:34.099Z,19.80
2022-11-05T18:04:08.219Z,21.42
2022-11-05T18:06:37.288Z,22.23
2022-11-05T18:09:05.838Z,26.38
2022-11-05T18:11:34.221Z,25.02
2022-11-05T18:14:01.804Z,24.45
2022-11-05T18:16:28.915Z,23.02
2022-11-05T18:18:56.577Z,24.05
2022-11-05T18:21:23.676Z,23.05
2022-11-05T18:23:50.877Z,21.52
2022-11-05T18:26:18.900Z,20.85
2022-11-05T18:28:46.445Z,18.73
2022-11-05T18:31:21.402Z,20.05
2022-11-05T18:33:50.348Z,19.33
2022-11-05T18:36:25.810Z,17.45
2022-11-05T18:38:53.747Z,19.05
2022-11-05T18:41:21.858Z,19.25
2022-11-05T18:43:49.085Z,20.50
2022-11-05T18:46:43.047Z,19.67
2022-11-05T18:49:04.709Z,18.13
2022-11-05T18:51:31.850Z,17.42
2022-11-05T18:53:59.720Z,16.15
2022-11-05T18:56:26.818Z,17.90
2022-11-05T18:59:14.679Z,18.83
2022-11-05T19:01:42.063Z,17.75
2022-11-05T19:04:09.856Z,17.40
2022-11-05T19:06:37.302Z,17.40
2022-11-05T19:09:06.679Z,17.35
2022-11-05T19:11:33.788Z,19.67
2022-11-05T19:14:01.028Z,19.13
2022-11-05T19:16:29.951Z,18.38
2022-11-05T19:19:05.488Z,17.85
2022-11-05T19:21:32.916Z,17.50
2022-11-05T19:24:02.115Z,17.27
2022-11-05T19:26:29.843Z,18.58
2022-11-05T19:29:01.983Z,18.70
2022-11-05T19:31:30.314Z,17.55
2022-11-05T19:33:58.288Z,15.80
2022-11-05T19:36:25.899Z,16.13
2022-11-05T19:39:01.927Z,16.08
2022-11-05T19:41:29.391Z,15.13
2022-11-05T19:43:58.169Z,15.80
2022-11-05T19:46:25.857Z,16.98
2022-11-05T19:48:53.484Z,15.38
2022-11-05T19:51:26.231Z,15.50
2022-11-05T19:53:55.255Z,15.07
2022-11-05T19:56:24.721Z,14.90
2022-11-05T19:58:53.984Z,15.25
2022-11-05T20:01:22.956Z,15.73
2022-11-05T20:03:51.151Z,15.27
2022-11-05T20:06:22.161Z,15.50
2022-11-05T20:11:40.154Z,14.55
2022-11-05T20:14:09.657Z,15.90
2022-11-05T20:16:39.270Z,15.90
2022-11-05T20:19:09.376Z,15.15
2022-11-05T20:21:36.467Z,15.63
2022-11-05T20:24:04.160Z,14.93
2022-11-05T20:26:31.851Z,14.90
2022-11-05T20:28:59.125Z,15.60
2022-11-05T20:31:26.248Z,15.63
2022-11-05T20:33:54.580Z,17.27
2022-11-05T20:36:24.209Z,18.10
2022-11-05T20:38:55.381Z,17.88
2022-11-05T20:41:23.233Z,18.90
2022-11-05T20:43:51.155Z,19.30
2022-11-05T20:46:19.868Z,18.33
2022-11-05T20:48:47.030Z,18.55
2022-11-05T20:51:16.647Z,19.45
2022-11-05T20:53:44.467Z,19.95
2022-11-05T20:56:25.903Z,19.15
2022-11-05T20:58:53.886Z,18.75
2022-11-05T21:01:21.101Z,18.77
2022-11-05T21:03:48.616Z,18.73
2022-11-05T21:06:16.959Z,19.10
2022-11-05T21:08:46.948Z,18.60
2022-11-05T21:11:14.094Z,19.23
2022-11-05T21:13:41.264Z,18.65
2022-11-05T21:16:14.043Z,19.38
2022-11-05T21:18:44.928Z,18.95
2022-11-05T21:21:15.832Z,19.35
2022-11-05T21:23:43.181Z,18.90
2022-11-05T21:26:13.016Z,18.55
2022-11-05T21:28:41.374Z,18.60
2022-11-05T21:31:09.072Z,19.83
2022-11-05T21:33:36.182Z,18.52
2022-11-05T21:36:13.421Z,18.42
2022-11-05T21:38:41.624Z,19.02
2022-11-05T21:41:11.846Z,17.20
2022-11-05T21:43:40.662Z,17.90
2022-11-05T21:46:07.789Z,16.85
2022-11-05T21:48:34.840Z,19.52
2022-11-05T21:51:20.257Z,18.35
2022-11-05T21:54:05.814Z,18.98
2022-11-05T21:56:51.834Z,18.50
2022-11-05T21:59:40.870Z,20.13
2022-11-05T22:02:09.525Z,18.42
2022-11-05T22:04:38.975Z,18.75
2022-11-05T22:07:08.145Z,21.23
2022-11-05T22:09:35.708Z,18.92
2022-11-05T22:12:03.317Z,20.60
2022-11-05T22:14:30.647Z,20.27
2022-11-05T22:16:58.302Z,19.15
2022-11-05T22:19:26.130Z,19.23
2022-11-05T22:21:53.302Z,20.10
2022-11-05T22:24:20.893Z,17.98
2022-11-05T22:26:49.355Z,19.83
2022-11-05T22:29:17.421Z,19.67
2022-11-05T22:31:44.580Z,21.20
2022-11-05T22:34:12.002Z,21.60
2022-11-05T22:36:39.284Z,21.95
2022-11-05T22:39:07.109Z,23.60
2022-11-05T22:41:35.945Z,24.63
2022-11-05T22:44:03.819Z,23.20
2022-11-05T22:46:31.477Z,22.92
2022-11-05T22:48:59.469Z,22.67
2022-11-05T22:51:29.753Z,22.50
2022-11-05T22:53:58.125Z,23.05
2022-11-05T22:56:30.824Z,23.63
2022-11-05T22:58:59.190Z,22.40
2022-11-05T23:01:26.633Z,22.50
2022-11-05T23:03:55.740Z,22.80
2022-11-05T23:06:47.870Z,22.20
2022-11-05T23:09:43.319Z,20.40
2022-11-05T23:12:35.425Z,20.77
2022-11-05T23:15:05.824Z,20.23
2022-11-05T23:17:51.854Z,20.55
2022-11-05T23:20:41.607Z,21.52
2022-11-05T23:23:31.533Z,21.55
2022-11-05T23:25:59.777Z,20.23
2022-11-05T23:28:26.990Z,20.38
2022-11-05T23:31:12.524Z,20.58
2022-11-05T23:33:39.922Z,20.23
2022-11-05T23:36:26.035Z,21.08
2022-11-05T23:38:53.288Z,19.75
2022-11-05T23:41:39.656Z,20.35
2022-11-05T23:44:27.157Z,19.45
2022-11-05T23:47:13.626Z,19.88
2022-11-05T23:49:40.772Z,20.83
2022-11-05T23:52:09.458Z,20.05
2022-11-05T23:54:37.273Z,20.90
2022-11-05T23:57:04.839Z,19.70
2022-11-05T23:59:31.991Z,19.95
